AirNav   ProFlight Series 2 Aviation Headset
 
 912 users online  

7PN9 East Forest Junior/Senior High School Heliport
Marienville, Pennsylvania, USA

GOING TO MARIENVILLE?


FAA INFORMATION EFFECTIVE 18 JUNE 2020

Location

FAA Identifier: 7PN9
Lat/Long: 41-28-30.0300N 079-07-33.9900W
41-28.500500N 079-07.566500W
41.4750083,-79.1261083
(estimated)
Elevation: 1751 ft. / 534 m (estimated)
Variation: 10W (2010)
From city: 1 mile NW of MARIENVILLE, PA
Time zone: UTC -4 (UTC -5 during Standard Time)
Zip code: 16239

Heliport Operations

Heliport use: Private use, MEDICAL USE.
Activation date: 01/2007
Control tower: no
ARTCC: CLEVELAND CENTER
FSS: ALTOONA FLIGHT SERVICE STATION
NOTAMs facility: FDC (NOTAM-D service not available)
Attendance: UNATNDD
Segmented circle: no
Lights: FOR PERIMETER LGTS CALL 814-927-6688.

Nearby radio navigation aids

VOR radial/distance  VOR name  Freq  Var
CIPr043/24.8CLARION VOR/DME112.9006W
BFDr238/29.4BRADFORD VOR/DME116.6007W
FKLr092/(32.9)FRANKLIN VOR109.6006W

Heliport Services

Runway Information

Helipad H1

Dimensions: 50 x 50 ft. / 15 x 15 m
Surface: concrete
Runway edge lights: PERI
Traffic pattern: leftleft

Heliport Ownership and Management from official FAA records

Ownership: Privately-owned
Owner: EAST FOREST JR./SR HI SCHOOL
PO BOX 308
MARIENVILLE, PA 16239
Phone 814-927-6688
Manager: EAST FOREST JR./SR HI SCHOOL
PO BOX 308
MARIENVILLE, PA 16239
Phone 814-927-6688

Additional Remarks

FOR CD CTC CLEVELAND ARTCC AT 440-774-0227.

Instrument Procedures

There are no published instrument procedures at 7PN9.

Some nearby airports with instrument procedures:

KDUJ - Dubois Regional Airport (21 nm SE)
KAXQ - Clarion County Airport (21 nm SW)
KOYM - St Marys Municipal Airport (28 nm E)
6G1 - Titusville Airport (29 nm W)
KBFD - Bradford Regional Airport (29 nm NE)
 
Loc | Ops | Rwys | IFR | FBO | Links
Com | Nav | Svcs | Stats | Notes
Area around 7PN9 (East Forest Junior/Senior High School Heliport)
 
Road maps at: MapQuest Bing Google
 
Aerial photo
No photo
 
Sectional chart

 
Airport distance calculator
Flying to East Forest Junior/Senior High School Heliport? Find the distance to fly.

From to 7PN9

Sunrise and sunset
Times for 07-Jul-2020
 Local
(UTC-4)
 Zulu
(UTC)
Morning civil twilight05:1809:18
Sunrise05:5209:52
Sunset20:5100:51
Evening civil twilight21:2501:25

Current date and time
Zulu (UTC)  08-Jul-2020 01:44:35
Local (UTC-4)  07-Jul-2020 21:44:35
 
METAR
KDUJ 
21nm SE 
080139Z AUTO VRB03KT 1 1/2SM VCTS RA BR BKN040 OVC100 21/20 A3008 RMK AO2 LTG DSNT NE AND E RAB00 TSB04E33 P0007 T02110200
KOYM 
28nm E 
080135Z AUTO 00000KT 10SM -VCTSRA SCT015 BKN021 OVC048 21/21 A3012 RMK AO2 LTG DSNT E AND SE P0001
KBFD 
29nm NE 
080053Z AUTO 14007KT 10SM FEW060 23/18 A3006 RMK AO2 LTG DSNT SE AND S SLP161 T02280178
KFKL 
34nm W 
080056Z AUTO 24005KT 10SM CLR 23/19 A3003 RMK AO2 SLP159 T02280189
KJHW 
40nm N 
080056Z AUTO 17003KT 10SM CLR 24/21 A3001 RMK AO2 SLP156 T02390211
KFIG 
41nm SE 
080128Z AUTO 34007KT 10SM -RA BKN022 BKN033 OVC090 23/19 A3008 RMK AO2 LTG DSNT W-NE RAB17 P0000 T02330194
TAF
KDUJ 
21nm SE 
071959Z 0720/0818 23005KT P6SM VCSH BKN050 TEMPO 0722/0724 5SM TSRA OVC035CB FM080000 21003KT P6SM BKN100 FM080900 00000KT 3SM BR SCT010 FM081300 00000KT P6SM SCT100
NOTAMs
Click for the latest NOTAMs
NOTAMs are issued by the DoD/FAA and will open in a separate window not controlled by AirNav.

 

 
 

Would you like to see your business listed on this page?

 If your business provides an interesting product or service to pilots, flight crews, aircraft, or users of the East Forest Junior/Senior High School Heliport, you should consider listing it here.  To start the listing process, click on the button below
 
Add a business
 

Other Pages about East Forest Junior/Senior High School Heliport

Update a link
 
Copyright © AirNav, LLC. All rights reserved. Privacy Policy  Contact